sensor_id;sensor_type;location;lat;lon;timestamp;P1;durP1;ratioP1;P2;durP2;ratioP2
43552;SDS011;29153;42.696;23.218;2022-12-24T00:00:37;27.42;;;12.70;;
43552;SDS011;29153;42.696;23.218;2022-12-24T00:03:05;24.20;;;10.45;;
43552;SDS011;29153;42.696;23.218;2022-12-24T00:05:33;23.45;;;12.03;;
43552;SDS011;29153;42.696;23.218;2022-12-24T00:08:02;20.45;;;9.60;;
43552;SDS011;29153;42.696;23.218;2022-12-24T00:10:29;26.52;;;12.60;;
43552;SDS011;29153;42.696;23.218;2022-12-24T00:12:57;25.95;;;11.38;;
43552;SDS011;29153;42.696;23.218;2022-12-24T00:15:25;27.37;;;14.18;;
43552;SDS011;29153;42.696;23.218;2022-12-24T00:17:52;24.72;;;13.25;;
43552;SDS011;29153;42.696;23.218;2022-12-24T00:20:20;27.95;;;13.40;;
43552;SDS011;29153;42.696;23.218;2022-12-24T00:22:49;22.30;;;11.65;;
43552;SDS011;29153;42.696;23.218;2022-12-24T00:25:17;23.00;;;10.03;;
43552;SDS011;29153;42.696;23.218;2022-12-24T00:27:44;26.87;;;12.63;;
43552;SDS011;29153;42.696;23.218;2022-12-24T00:30:12;22.35;;;10.98;;
43552;SDS011;29153;42.696;23.218;2022-12-24T00:32:39;22.35;;;10.20;;
43552;SDS011;29153;42.696;23.218;2022-12-24T00:35:07;17.82;;;8.78;;
43552;SDS011;29153;42.696;23.218;2022-12-24T00:37:34;19.25;;;9.23;;
43552;SDS011;29153;42.696;23.218;2022-12-24T00:40:02;19.75;;;11.33;;
43552;SDS011;29153;42.696;23.218;2022-12-24T00:42:30;17.12;;;8.65;;
43552;SDS011;29153;42.696;23.218;2022-12-24T00:44:57;21.65;;;10.50;;
43552;SDS011;29153;42.696;23.218;2022-12-24T00:47:25;21.52;;;10.28;;
43552;SDS011;29153;42.696;23.218;2022-12-24T00:49:53;21.23;;;9.25;;
43552;SDS011;29153;42.696;23.218;2022-12-24T00:52:21;34.18;;;17.67;;
43552;SDS011;29153;42.696;23.218;2022-12-24T00:54:48;38.35;;;14.30;;
43552;SDS011;29153;42.696;23.218;2022-12-24T00:57:16;25.30;;;10.50;;
43552;SDS011;29153;42.696;23.218;2022-12-24T00:59:44;20.40;;;9.15;;
43552;SDS011;29153;42.696;23.218;2022-12-24T01:02:11;18.90;;;9.30;;
43552;SDS011;29153;42.696;23.218;2022-12-24T01:04:38;19.12;;;7.95;;
43552;SDS011;29153;42.696;23.218;2022-12-24T01:07:24;26.48;;;13.43;;
43552;SDS011;29153;42.696;23.218;2022-12-24T01:09:51;24.30;;;11.63;;
43552;SDS011;29153;42.696;23.218;2022-12-24T01:12:19;21.10;;;9.38;;
43552;SDS011;29153;42.696;23.218;2022-12-24T01:14:46;18.82;;;9.55;;
43552;SDS011;29153;42.696;23.218;2022-12-24T01:17:14;22.00;;;8.23;;
43552;SDS011;29153;42.696;23.218;2022-12-24T01:19:41;16.25;;;6.97;;
43552;SDS011;29153;42.696;23.218;2022-12-24T01:22:09;16.97;;;8.08;;
43552;SDS011;29153;42.696;23.218;2022-12-24T01:24:37;18.37;;;8.43;;
43552;SDS011;29153;42.696;23.218;2022-12-24T01:29:32;16.55;;;7.55;;
43552;SDS011;29153;42.696;23.218;2022-12-24T01:32:00;21.00;;;9.88;;
43552;SDS011;29153;42.696;23.218;2022-12-24T01:34:27;18.90;;;8.18;;
43552;SDS011;29153;42.696;23.218;2022-12-24T01:36:55;19.32;;;8.23;;
43552;SDS011;29153;42.696;23.218;2022-12-24T01:39:22;18.77;;;7.50;;
43552;SDS011;29153;42.696;23.218;2022-12-24T01:41:50;21.77;;;9.40;;
43552;SDS011;29153;42.696;23.218;2022-12-24T01:44:39;17.77;;;7.37;;
43552;SDS011;29153;42.696;23.218;2022-12-24T01:47:15;20.30;;;8.45;;
43552;SDS011;29153;42.696;23.218;2022-12-24T01:49:47;19.07;;;10.40;;
43552;SDS011;29153;42.696;23.218;2022-12-24T01:52:20;20.90;;;8.93;;
43552;SDS011;29153;42.696;23.218;2022-12-24T01:54:57;19.20;;;8.45;;
43552;SDS011;29153;42.696;23.218;2022-12-24T01:57:31;24.43;;;10.40;;
43552;SDS011;29153;42.696;23.218;2022-12-24T02:00:00;23.40;;;12.30;;
43552;SDS011;29153;42.696;23.218;2022-12-24T02:02:30;20.88;;;8.75;;
43552;SDS011;29153;42.696;23.218;2022-12-24T02:05:02;19.75;;;8.20;;
43552;SDS011;29153;42.696;23.218;2022-12-24T02:07:38;16.97;;;7.45;;
43552;SDS011;29153;42.696;23.218;2022-12-24T02:10:07;16.25;;;8.05;;
43552;SDS011;29153;42.696;23.218;2022-12-24T02:12:36;29.45;;;13.15;;
43552;SDS011;29153;42.696;23.218;2022-12-24T02:15:06;20.48;;;9.10;;
43552;SDS011;29153;42.696;23.218;2022-12-24T02:23:33;49.10;;;17.15;;
43552;SDS011;29153;42.696;23.218;2022-12-24T02:29:26;215.72;;;74.55;;
43552;SDS011;29153;42.696;23.218;2022-12-24T02:32:03;57.98;;;22.98;;
43552;SDS011;29153;42.696;23.218;2022-12-24T02:34:37;93.37;;;29.70;;
43552;SDS011;29153;42.696;23.218;2022-12-24T02:37:17;63.73;;;22.17;;
43552;SDS011;29153;42.696;23.218;2022-12-24T02:39:50;31.45;;;11.65;;
43552;SDS011;29153;42.696;23.218;2022-12-24T02:42:22;94.07;;;28.98;;
43552;SDS011;29153;42.696;23.218;2022-12-24T02:44:56;238.82;;;77.30;;
43552;SDS011;29153;42.696;23.218;2022-12-24T02:47:25;35.92;;;14.25;;
43552;SDS011;29153;42.696;23.218;2022-12-24T02:49:55;126.58;;;35.88;;
43552;SDS011;29153;42.696;23.218;2022-12-24T02:52:27;80.95;;;25.92;;
43552;SDS011;29153;42.696;23.218;2022-12-24T02:55:06;29.32;;;11.12;;
43552;SDS011;29153;42.696;23.218;2022-12-24T02:57:37;117.40;;;34.63;;
43552;SDS011;29153;42.696;23.218;2022-12-24T03:00:18;139.88;;;44.53;;
43552;SDS011;29153;42.696;23.218;2022-12-24T03:08:13;67.30;;;29.48;;
43552;SDS011;29153;42.696;23.218;2022-12-24T03:10:45;23.02;;;11.10;;
43552;SDS011;29153;42.696;23.218;2022-12-24T03:13:16;55.63;;;20.60;;
43552;SDS011;29153;42.696;23.218;2022-12-24T03:15:45;72.82;;;24.25;;
43552;SDS011;29153;42.696;23.218;2022-12-24T03:18:16;45.43;;;15.80;;
43552;SDS011;29153;42.696;23.218;2022-12-24T03:20:51;107.30;;;29.57;;
43552;SDS011;29153;42.696;23.218;2022-12-24T03:23:16;70.30;;;22.73;;
43552;SDS011;29153;42.696;23.218;2022-12-24T03:25:43;68.17;;;21.90;;
43552;SDS011;29153;42.696;23.218;2022-12-24T03:28:13;80.70;;;25.43;;
43552;SDS011;29153;42.696;23.218;2022-12-24T03:30:43;51.20;;;16.73;;
43552;SDS011;29153;42.696;23.218;2022-12-24T03:33:13;21.57;;;8.65;;
43552;SDS011;29153;42.696;23.218;2022-12-24T03:38:09;36.53;;;11.55;;
43552;SDS011;29153;42.696;23.218;2022-12-24T03:40:37;36.60;;;12.98;;
43552;SDS011;29153;42.696;23.218;2022-12-24T03:43:04;32.90;;;12.30;;
43552;SDS011;29153;42.696;23.218;2022-12-24T03:45:32;24.50;;;9.20;;
43552;SDS011;29153;42.696;23.218;2022-12-24T03:48:00;23.18;;;9.05;;
43552;SDS011;29153;42.696;23.218;2022-12-24T03:50:27;19.27;;;7.53;;
43552;SDS011;29153;42.696;23.218;2022-12-24T03:52:55;18.35;;;7.28;;
43552;SDS011;29153;42.696;23.218;2022-12-24T03:55:22;21.77;;;9.65;;
43552;SDS011;29153;42.696;23.218;2022-12-24T03:57:50;43.28;;;17.20;;
43552;SDS011;29153;42.696;23.218;2022-12-24T04:00:18;135.55;;;44.98;;
43552;SDS011;29153;42.696;23.218;2022-12-24T04:02:45;44.35;;;17.40;;
43552;SDS011;29153;42.696;23.218;2022-12-24T04:05:14;19.90;;;9.28;;
43552;SDS011;29153;42.696;23.218;2022-12-24T04:07:44;74.62;;;23.92;;
43552;SDS011;29153;42.696;23.218;2022-12-24T04:10:13;51.50;;;17.05;;
43552;SDS011;29153;42.696;23.218;2022-12-24T04:15:08;21.57;;;8.53;;
43552;SDS011;29153;42.696;23.218;2022-12-24T04:17:36;53.40;;;19.90;;
43552;SDS011;29153;42.696;23.218;2022-12-24T04:20:04;36.55;;;13.65;;
43552;SDS011;29153;42.696;23.218;2022-12-24T04:22:32;39.42;;;18.67;;
43552;SDS011;29153;42.696;23.218;2022-12-24T04:24:59;25.72;;;12.05;;
43552;SDS011;29153;42.696;23.218;2022-12-24T04:27:27;26.93;;;12.45;;
43552;SDS011;29153;42.696;23.218;2022-12-24T04:29:55;27.48;;;11.93;;
43552;SDS011;29153;42.696;23.218;2022-12-24T04:32:24;20.92;;;10.18;;
43552;SDS011;29153;42.696;23.218;2022-12-24T04:34:52;39.53;;;16.25;;
43552;SDS011;29153;42.696;23.218;2022-12-24T04:37:20;48.02;;;18.87;;
43552;SDS011;29153;42.696;23.218;2022-12-24T04:39:47;32.70;;;15.15;;
43552;SDS011;29153;42.696;23.218;2022-12-24T04:42:15;36.42;;;15.83;;
43552;SDS011;29153;42.696;23.218;2022-12-24T04:44:42;21.93;;;10.10;;
43552;SDS011;29153;42.696;23.218;2022-12-24T04:47:10;30.92;;;12.93;;
43552;SDS011;29153;42.696;23.218;2022-12-24T04:49:37;43.02;;;17.30;;
43552;SDS011;29153;42.696;23.218;2022-12-24T04:52:05;41.37;;;17.42;;
43552;SDS011;29153;42.696;23.218;2022-12-24T04:54:32;27.17;;;12.88;;
43552;SDS011;29153;42.696;23.218;2022-12-24T04:57:00;21.17;;;10.95;;
43552;SDS011;29153;42.696;23.218;2022-12-24T04:59:27;25.30;;;11.15;;
43552;SDS011;29153;42.696;23.218;2022-12-24T05:01:55;36.40;;;14.75;;
43552;SDS011;29153;42.696;23.218;2022-12-24T05:04:22;23.00;;;11.68;;
43552;SDS011;29153;42.696;23.218;2022-12-24T05:06:50;20.85;;;9.05;;
43552;SDS011;29153;42.696;23.218;2022-12-24T05:09:17;20.82;;;10.48;;
43552;SDS011;29153;42.696;23.218;2022-12-24T05:11:45;20.25;;;8.48;;
43552;SDS011;29153;42.696;23.218;2022-12-24T05:14:12;20.25;;;9.30;;
43552;SDS011;29153;42.696;23.218;2022-12-24T05:16:40;26.65;;;12.60;;
43552;SDS011;29153;42.696;23.218;2022-12-24T05:19:08;21.73;;;10.53;;
43552;SDS011;29153;42.696;23.218;2022-12-24T05:21:36;26.85;;;10.88;;
43552;SDS011;29153;42.696;23.218;2022-12-24T05:24:03;22.48;;;9.68;;
43552;SDS011;29153;42.696;23.218;2022-12-24T05:26:53;21.57;;;10.10;;
43552;SDS011;29153;42.696;23.218;2022-12-24T05:29:22;23.27;;;10.23;;
43552;SDS011;29153;42.696;23.218;2022-12-24T05:31:50;30.08;;;11.70;;
43552;SDS011;29153;42.696;23.218;2022-12-24T05:34:18;19.27;;;9.45;;
43552;SDS011;29153;42.696;23.218;2022-12-24T05:36:45;17.32;;;7.80;;
43552;SDS011;29153;42.696;23.218;2022-12-24T05:39:14;18.77;;;8.90;;
43552;SDS011;29153;42.696;23.218;2022-12-24T05:41:42;17.42;;;8.38;;
43552;SDS011;29153;42.696;23.218;2022-12-24T05:44:11;17.25;;;8.05;;
43552;SDS011;29153;42.696;23.218;2022-12-24T05:46:39;22.48;;;9.75;;
43552;SDS011;29153;42.696;23.218;2022-12-24T05:49:07;21.33;;;9.63;;
43552;SDS011;29153;42.696;23.218;2022-12-24T05:51:34;19.07;;;8.20;;
43552;SDS011;29153;42.696;23.218;2022-12-24T05:54:02;21.85;;;9.70;;
43552;SDS011;29153;42.696;23.218;2022-12-24T05:56:29;21.20;;;8.93;;
43552;SDS011;29153;42.696;23.218;2022-12-24T05:58:57;22.80;;;9.43;;
43552;SDS011;29153;42.696;23.218;2022-12-24T06:01:24;15.63;;;7.33;;
43552;SDS011;29153;42.696;23.218;2022-12-24T06:03:55;13.20;;;6.60;;
43552;SDS011;29153;42.696;23.218;2022-12-24T06:06:23;16.77;;;8.10;;
43552;SDS011;29153;42.696;23.218;2022-12-24T06:08:53;16.80;;;8.10;;
43552;SDS011;29153;42.696;23.218;2022-12-24T06:11:22;15.65;;;7.70;;
43552;SDS011;29153;42.696;23.218;2022-12-24T06:13:52;49.03;;;27.80;;
43552;SDS011;29153;42.696;23.218;2022-12-24T06:16:21;36.08;;;18.20;;
43552;SDS011;29153;42.696;23.218;2022-12-24T06:18:55;25.77;;;11.97;;
43552;SDS011;29153;42.696;23.218;2022-12-24T06:21:24;30.33;;;16.57;;
43552;SDS011;29153;42.696;23.218;2022-12-24T06:23:55;30.37;;;15.32;;
43552;SDS011;29153;42.696;23.218;2022-12-24T06:26:22;17.48;;;7.85;;
43552;SDS011;29153;42.696;23.218;2022-12-24T06:28:49;18.82;;;8.65;;
43552;SDS011;29153;42.696;23.218;2022-12-24T06:31:20;31.12;;;16.05;;
43552;SDS011;29153;42.696;23.218;2022-12-24T06:33:49;27.42;;;14.47;;
43552;SDS011;29153;42.696;23.218;2022-12-24T06:36:18;25.90;;;14.00;;
43552;SDS011;29153;42.696;23.218;2022-12-24T06:38:51;26.27;;;12.68;;
43552;SDS011;29153;42.696;23.218;2022-12-24T06:41:20;23.80;;;11.30;;
43552;SDS011;29153;42.696;23.218;2022-12-24T06:43:49;24.72;;;12.82;;
43552;SDS011;29153;42.696;23.218;2022-12-24T06:46:18;18.27;;;8.98;;
43552;SDS011;29153;42.696;23.218;2022-12-24T06:48:46;22.27;;;9.88;;
43552;SDS011;29153;42.696;23.218;2022-12-24T06:51:15;18.55;;;8.90;;
43552;SDS011;29153;42.696;23.218;2022-12-24T06:53:45;22.85;;;9.78;;
43552;SDS011;29153;42.696;23.218;2022-12-24T06:56:15;18.05;;;8.78;;
43552;SDS011;29153;42.696;23.218;2022-12-24T06:58:43;18.85;;;9.23;;
43552;SDS011;29153;42.696;23.218;2022-12-24T07:01:12;19.98;;;9.75;;
43552;SDS011;29153;42.696;23.218;2022-12-24T07:03:41;19.27;;;9.03;;
43552;SDS011;29153;42.696;23.218;2022-12-24T07:06:16;20.30;;;8.85;;
43552;SDS011;29153;42.696;23.218;2022-12-24T07:08:45;31.27;;;12.70;;
43552;SDS011;29153;42.696;23.218;2022-12-24T07:11:13;31.02;;;12.82;;
43552;SDS011;29153;42.696;23.218;2022-12-24T07:13:40;25.40;;;12.03;;
43552;SDS011;29153;42.696;23.218;2022-12-24T07:16:08;28.77;;;13.13;;
43552;SDS011;29153;42.696;23.218;2022-12-24T07:18:35;36.45;;;18.57;;
43552;SDS011;29153;42.696;23.218;2022-12-24T07:21:03;57.38;;;28.80;;
43552;SDS011;29153;42.696;23.218;2022-12-24T07:23:32;66.97;;;31.85;;
43552;SDS011;29153;42.696;23.218;2022-12-24T07:26:00;60.67;;;28.60;;
43552;SDS011;29153;42.696;23.218;2022-12-24T07:28:31;60.03;;;27.87;;
43552;SDS011;29153;42.696;23.218;2022-12-24T07:30:59;62.62;;;29.00;;
43552;SDS011;29153;42.696;23.218;2022-12-24T07:33:27;75.67;;;35.70;;
43552;SDS011;29153;42.696;23.218;2022-12-24T07:36:01;97.95;;;42.58;;
43552;SDS011;29153;42.696;23.218;2022-12-24T07:38:31;147.32;;;60.23;;
43552;SDS011;29153;42.696;23.218;2022-12-24T07:40:59;134.67;;;52.75;;
43552;SDS011;29153;42.696;23.218;2022-12-24T07:43:27;107.70;;;46.18;;
43552;SDS011;29153;42.696;23.218;2022-12-24T07:46:00;104.95;;;44.48;;
43552;SDS011;29153;42.696;23.218;2022-12-24T07:48:24;99.22;;;45.45;;
43552;SDS011;29153;42.696;23.218;2022-12-24T07:50:53;85.75;;;39.48;;
43552;SDS011;29153;42.696;23.218;2022-12-24T07:53:21;82.50;;;38.53;;
43552;SDS011;29153;42.696;23.218;2022-12-24T07:55:50;89.30;;;43.02;;
43552;SDS011;29153;42.696;23.218;2022-12-24T07:58:18;83.55;;;41.18;;
43552;SDS011;29153;42.696;23.218;2022-12-24T08:00:45;82.45;;;41.28;;
43552;SDS011;29153;42.696;23.218;2022-12-24T08:03:19;88.25;;;44.30;;
43552;SDS011;29153;42.696;23.218;2022-12-24T08:05:47;85.07;;;42.33;;
43552;SDS011;29153;42.696;23.218;2022-12-24T08:08:17;82.78;;;40.48;;
43552;SDS011;29153;42.696;23.218;2022-12-24T08:10:46;82.08;;;40.90;;
43552;SDS011;29153;42.696;23.218;2022-12-24T08:13:13;91.75;;;41.98;;
43552;SDS011;29153;42.696;23.218;2022-12-24T08:15:41;87.15;;;44.35;;
43552;SDS011;29153;42.696;23.218;2022-12-24T08:18:09;94.58;;;44.20;;
43552;SDS011;29153;42.696;23.218;2022-12-24T08:20:38;94.47;;;42.50;;
43552;SDS011;29153;42.696;23.218;2022-12-24T08:23:06;113.70;;;50.83;;
43552;SDS011;29153;42.696;23.218;2022-12-24T08:25:35;96.17;;;44.67;;
43552;SDS011;29153;42.696;23.218;2022-12-24T08:28:03;92.33;;;44.65;;
43552;SDS011;29153;42.696;23.218;2022-12-24T08:30:31;85.90;;;41.15;;
43552;SDS011;29153;42.696;23.218;2022-12-24T08:32:59;88.33;;;42.17;;
43552;SDS011;29153;42.696;23.218;2022-12-24T08:35:27;84.35;;;41.80;;
43552;SDS011;29153;42.696;23.218;2022-12-24T08:37:55;92.30;;;43.15;;
43552;SDS011;29153;42.696;23.218;2022-12-24T08:40:23;81.02;;;41.23;;
43552;SDS011;29153;42.696;23.218;2022-12-24T08:42:50;84.75;;;44.13;;
43552;SDS011;29153;42.696;23.218;2022-12-24T08:45:18;94.05;;;43.95;;
43552;SDS011;29153;42.696;23.218;2022-12-24T08:47:46;102.78;;;48.68;;
43552;SDS011;29153;42.696;23.218;2022-12-24T08:50:14;94.22;;;44.88;;
43552;SDS011;29153;42.696;23.218;2022-12-24T08:52:41;95.65;;;47.30;;
43552;SDS011;29153;42.696;23.218;2022-12-24T08:55:08;86.20;;;42.05;;
43552;SDS011;29153;42.696;23.218;2022-12-24T08:57:36;85.80;;;41.28;;
43552;SDS011;29153;42.696;23.218;2022-12-24T09:00:04;117.95;;;51.35;;
43552;SDS011;29153;42.696;23.218;2022-12-24T09:02:32;106.67;;;45.43;;
43552;SDS011;29153;42.696;23.218;2022-12-24T09:05:00;82.22;;;38.98;;
43552;SDS011;29153;42.696;23.218;2022-12-24T09:07:28;155.78;;;57.88;;
43552;SDS011;29153;42.696;23.218;2022-12-24T09:09:55;139.05;;;54.25;;
43552;SDS011;29153;42.696;23.218;2022-12-24T09:12:23;113.40;;;48.17;;
43552;SDS011;29153;42.696;23.218;2022-12-24T09:14:50;137.62;;;54.85;;
43552;SDS011;29153;42.696;23.218;2022-12-24T09:17:19;95.53;;;43.48;;
43552;SDS011;29153;42.696;23.218;2022-12-24T09:19:47;76.97;;;36.17;;
43552;SDS011;29153;42.696;23.218;2022-12-24T09:22:14;67.27;;;34.03;;
43552;SDS011;29153;42.696;23.218;2022-12-24T09:24:41;64.40;;;31.25;;
43552;SDS011;29153;42.696;23.218;2022-12-24T09:27:09;88.58;;;36.55;;
43552;SDS011;29153;42.696;23.218;2022-12-24T09:29:37;63.10;;;29.45;;
43552;SDS011;29153;42.696;23.218;2022-12-24T09:32:05;62.65;;;32.83;;
43552;SDS011;29153;42.696;23.218;2022-12-24T09:34:33;55.95;;;28.32;;
43552;SDS011;29153;42.696;23.218;2022-12-24T09:37:00;56.35;;;27.60;;
43552;SDS011;29153;42.696;23.218;2022-12-24T09:39:28;61.50;;;27.32;;
43552;SDS011;29153;42.696;23.218;2022-12-24T09:41:58;59.40;;;26.48;;
43552;SDS011;29153;42.696;23.218;2022-12-24T09:44:32;44.58;;;22.10;;
43552;SDS011;29153;42.696;23.218;2022-12-24T09:47:22;35.45;;;19.02;;
43552;SDS011;29153;42.696;23.218;2022-12-24T09:49:55;44.42;;;23.07;;
43552;SDS011;29153;42.696;23.218;2022-12-24T09:55:06;60.28;;;30.37;;
43552;SDS011;29153;42.696;23.218;2022-12-24T09:57:33;62.13;;;30.75;;
43552;SDS011;29153;42.696;23.218;2022-12-24T10:00:02;73.80;;;39.63;;
43552;SDS011;29153;42.696;23.218;2022-12-24T10:02:31;92.33;;;46.77;;
43552;SDS011;29153;42.696;23.218;2022-12-24T10:04:58;83.52;;;43.17;;
43552;SDS011;29153;42.696;23.218;2022-12-24T10:10:22;82.17;;;40.10;;
43552;SDS011;29153;42.696;23.218;2022-12-24T10:13:36;99.13;;;46.60;;
43552;SDS011;29153;42.696;23.218;2022-12-24T10:15:30;93.52;;;46.05;;
43552;SDS011;29153;42.696;23.218;2022-12-24T10:18:04;90.40;;;44.30;;
43552;SDS011;29153;42.696;23.218;2022-12-24T10:31:11;79.95;;;41.88;;
43552;SDS011;29153;42.696;23.218;2022-12-24T10:33:41;86.28;;;43.02;;
43552;SDS011;29153;42.696;23.218;2022-12-24T10:36:14;84.62;;;42.15;;
43552;SDS011;29153;42.696;23.218;2022-12-24T10:38:44;92.67;;;44.15;;
43552;SDS011;29153;42.696;23.218;2022-12-24T10:41:12;80.20;;;41.00;;
43552;SDS011;29153;42.696;23.218;2022-12-24T10:43:41;84.13;;;42.20;;
43552;SDS011;29153;42.696;23.218;2022-12-24T10:51:23;85.35;;;43.80;;
43552;SDS011;29153;42.696;23.218;2022-12-24T10:53:53;94.13;;;48.25;;
43552;SDS011;29153;42.696;23.218;2022-12-24T10:56:47;100.20;;;47.85;;
43552;SDS011;29153;42.696;23.218;2022-12-24T10:59:24;96.85;;;48.08;;
43552;SDS011;29153;42.696;23.218;2022-12-24T11:01:57;104.23;;;51.10;;
43552;SDS011;29153;42.696;23.218;2022-12-24T11:04:26;103.27;;;51.08;;
43552;SDS011;29153;42.696;23.218;2022-12-24T11:06:59;106.30;;;51.20;;
43552;SDS011;29153;42.696;23.218;2022-12-24T11:09:33;100.15;;;51.25;;
43552;SDS011;29153;42.696;23.218;2022-12-24T11:12:22;97.35;;;47.23;;
43552;SDS011;29153;42.696;23.218;2022-12-24T11:14:47;98.20;;;49.23;;
43552;SDS011;29153;42.696;23.218;2022-12-24T11:17:20;115.00;;;54.77;;
43552;SDS011;29153;42.696;23.218;2022-12-24T11:19:48;106.12;;;51.85;;
43552;SDS011;29153;42.696;23.218;2022-12-24T11:22:23;99.50;;;51.18;;
43552;SDS011;29153;42.696;23.218;2022-12-24T11:25:04;116.25;;;57.65;;
43552;SDS011;29153;42.696;23.218;2022-12-24T11:27:39;110.80;;;54.05;;
43552;SDS011;29153;42.696;23.218;2022-12-24T11:30:32;117.75;;;55.83;;
43552;SDS011;29153;42.696;23.218;2022-12-24T11:32:44;117.13;;;54.05;;
43552;SDS011;29153;42.696;23.218;2022-12-24T11:35:15;100.78;;;49.38;;
43552;SDS011;29153;42.696;23.218;2022-12-24T11:37:46;160.78;;;68.47;;
43552;SDS011;29153;42.696;23.218;2022-12-24T11:40:20;105.35;;;49.20;;
43552;SDS011;29153;42.696;23.218;2022-12-24T11:42:51;99.72;;;50.45;;
43552;SDS011;29153;42.696;23.218;2022-12-24T11:45:24;95.60;;;48.35;;
43552;SDS011;29153;42.696;23.218;2022-12-24T11:47:54;99.25;;;48.60;;
43552;SDS011;29153;42.696;23.218;2022-12-24T11:58:26;94.03;;;44.73;;
43552;SDS011;29153;42.696;23.218;2022-12-24T12:01:09;87.42;;;40.85;;
43552;SDS011;29153;42.696;23.218;2022-12-24T12:03:53;85.90;;;42.75;;
43552;SDS011;29153;42.696;23.218;2022-12-24T12:06:31;83.62;;;40.30;;
43552;SDS011;29153;42.696;23.218;2022-12-24T12:09:12;86.35;;;41.68;;
43552;SDS011;29153;42.696;23.218;2022-12-24T12:11:43;69.37;;;35.88;;
43552;SDS011;29153;42.696;23.218;2022-12-24T12:14:17;69.72;;;35.40;;
43552;SDS011;29153;42.696;23.218;2022-12-24T12:16:44;75.35;;;37.83;;
43552;SDS011;29153;42.696;23.218;2022-12-24T12:19:42;74.75;;;36.17;;
43552;SDS011;29153;42.696;23.218;2022-12-24T12:22:06;79.58;;;38.83;;
43552;SDS011;29153;42.696;23.218;2022-12-24T12:24:37;74.92;;;34.67;;
43552;SDS011;29153;42.696;23.218;2022-12-24T12:27:18;55.48;;;28.10;;
43552;SDS011;29153;42.696;23.218;2022-12-24T12:30:00;61.80;;;30.10;;
43552;SDS011;29153;42.696;23.218;2022-12-24T12:35:36;55.25;;;25.70;;
43552;SDS011;29153;42.696;23.218;2022-12-24T12:38:19;64.22;;;29.67;;
43552;SDS011;29153;42.696;23.218;2022-12-24T12:41:04;76.67;;;33.48;;
43552;SDS011;29153;42.696;23.218;2022-12-24T12:43:50;52.45;;;25.55;;
43552;SDS011;29153;42.696;23.218;2022-12-24T12:49:25;49.23;;;21.07;;
43552;SDS011;29153;42.696;23.218;2022-12-24T12:55:01;54.83;;;26.82;;
43552;SDS011;29153;42.696;23.218;2022-12-24T12:57:35;51.35;;;26.48;;
43552;SDS011;29153;42.696;23.218;2022-12-24T13:00:09;58.20;;;26.80;;
43552;SDS011;29153;42.696;23.218;2022-12-24T13:05:30;53.98;;;26.25;;
43552;SDS011;29153;42.696;23.218;2022-12-24T13:08:08;47.05;;;23.45;;
43552;SDS011;29153;42.696;23.218;2022-12-24T13:13:27;39.85;;;18.90;;
43552;SDS011;29153;42.696;23.218;2022-12-24T13:18:54;63.42;;;28.45;;
43552;SDS011;29153;42.696;23.218;2022-12-24T13:21:30;46.42;;;25.08;;
43552;SDS011;29153;42.696;23.218;2022-12-24T13:24:17;50.65;;;23.70;;
43552;SDS011;29153;42.696;23.218;2022-12-24T13:37:23;71.30;;;32.70;;
43552;SDS011;29153;42.696;23.218;2022-12-24T13:40:06;54.20;;;25.70;;
43552;SDS011;29153;42.696;23.218;2022-12-24T13:50:47;117.17;;;50.25;;
43552;SDS011;29153;42.696;23.218;2022-12-24T13:58:50;92.70;;;38.02;;
43552;SDS011;29153;42.696;23.218;2022-12-24T14:01:21;93.70;;;39.08;;
43552;SDS011;29153;42.696;23.218;2022-12-24T14:03:52;64.60;;;29.82;;
43552;SDS011;29153;42.696;23.218;2022-12-24T14:09:25;85.07;;;37.23;;
43552;SDS011;29153;42.696;23.218;2022-12-24T14:17:00;104.05;;;46.30;;
43552;SDS011;29153;42.696;23.218;2022-12-24T14:19:42;95.83;;;42.13;;
43552;SDS011;29153;42.696;23.218;2022-12-24T14:25:18;46.23;;;22.93;;
43552;SDS011;29153;42.696;23.218;2022-12-24T14:27:54;44.98;;;21.30;;
43552;SDS011;29153;42.696;23.218;2022-12-24T14:30:23;44.48;;;20.68;;
43552;SDS011;29153;42.696;23.218;2022-12-24T14:32:55;33.63;;;17.77;;
43552;SDS011;29153;42.696;23.218;2022-12-24T14:35:57;35.60;;;17.95;;
43552;SDS011;29153;42.696;23.218;2022-12-24T14:38:07;47.58;;;24.00;;
43552;SDS011;29153;42.696;23.218;2022-12-24T14:40:51;71.07;;;33.00;;
43552;SDS011;29153;42.696;23.218;2022-12-24T14:43:34;42.93;;;22.05;;
43552;SDS011;29153;42.696;23.218;2022-12-24T14:46:23;28.87;;;13.75;;
43552;SDS011;29153;42.696;23.218;2022-12-24T14:49:07;28.95;;;14.75;;
43552;SDS011;29153;42.696;23.218;2022-12-24T14:54:38;48.50;;;24.02;;
43552;SDS011;29153;42.696;23.218;2022-12-24T15:07:47;46.13;;;19.70;;
43552;SDS011;29153;42.696;23.218;2022-12-24T15:13:06;40.48;;;16.48;;
43552;SDS011;29153;42.696;23.218;2022-12-24T15:15:44;23.77;;;9.95;;
43552;SDS011;29153;42.696;23.218;2022-12-24T15:18:14;39.98;;;13.78;;
43552;SDS011;29153;42.696;23.218;2022-12-24T15:20:45;85.50;;;27.90;;
43552;SDS011;29153;42.696;23.218;2022-12-24T15:23:18;115.57;;;34.73;;
43552;SDS011;29153;42.696;23.218;2022-12-24T15:25:47;79.90;;;25.60;;
43552;SDS011;29153;42.696;23.218;2022-12-24T15:28:18;102.87;;;31.68;;
43552;SDS011;29153;42.696;23.218;2022-12-24T15:30:47;79.60;;;26.12;;
43552;SDS011;29153;42.696;23.218;2022-12-24T15:33:14;66.72;;;22.58;;
43552;SDS011;29153;42.696;23.218;2022-12-24T15:35:50;84.20;;;29.72;;
43552;SDS011;29153;42.696;23.218;2022-12-24T15:38:23;45.23;;;18.60;;
43552;SDS011;29153;42.696;23.218;2022-12-24T15:40:52;30.35;;;13.78;;
43552;SDS011;29153;42.696;23.218;2022-12-24T15:43:21;26.05;;;13.68;;
43552;SDS011;29153;42.696;23.218;2022-12-24T15:45:50;28.95;;;14.03;;
43552;SDS011;29153;42.696;23.218;2022-12-24T15:48:20;45.78;;;20.32;;
43552;SDS011;29153;42.696;23.218;2022-12-24T15:50:53;37.30;;;17.80;;
43552;SDS011;29153;42.696;23.218;2022-12-24T15:53:27;55.58;;;21.57;;
43552;SDS011;29153;42.696;23.218;2022-12-24T15:56:26;66.00;;;22.50;;
43552;SDS011;29153;42.696;23.218;2022-12-24T16:01:56;158.68;;;47.53;;
43552;SDS011;29153;42.696;23.218;2022-12-24T16:04:27;135.32;;;44.18;;
43552;SDS011;29153;42.696;23.218;2022-12-24T16:06:56;72.70;;;26.87;;
43552;SDS011;29153;42.696;23.218;2022-12-24T16:12:02;66.30;;;27.40;;
43552;SDS011;29153;42.696;23.218;2022-12-24T16:14:31;67.12;;;27.27;;
43552;SDS011;29153;42.696;23.218;2022-12-24T16:16:59;63.65;;;25.43;;
43552;SDS011;29153;42.696;23.218;2022-12-24T16:19:28;59.95;;;24.82;;
43552;SDS011;29153;42.696;23.218;2022-12-24T16:21:58;45.80;;;21.33;;
43552;SDS011;29153;42.696;23.218;2022-12-24T16:24:34;33.00;;;16.87;;
43552;SDS011;29153;42.696;23.218;2022-12-24T16:27:01;38.73;;;18.15;;
43552;SDS011;29153;42.696;23.218;2022-12-24T16:29:30;38.02;;;18.67;;
43552;SDS011;29153;42.696;23.218;2022-12-24T16:31:57;18.37;;;10.03;;
43552;SDS011;29153;42.696;23.218;2022-12-24T16:34:26;17.77;;;8.25;;
43552;SDS011;29153;42.696;23.218;2022-12-24T16:36:56;12.80;;;6.28;;